sensor_id;sensor_type;location;lat;lon;timestamp;P1;durP1;ratioP1;P2;durP2;ratioP2
15295;SDS011;7749;49.964;7.890;2022-09-21T00:03:52;4.93;;;3.50;;
15295;SDS011;7749;49.964;7.890;2022-09-21T00:06:21;5.73;;;4.00;;
15295;SDS011;7749;49.964;7.890;2022-09-21T00:08:51;5.77;;;3.50;;
15295;SDS011;7749;49.964;7.890;2022-09-21T00:11:23;4.27;;;3.40;;
15295;SDS011;7749;49.964;7.890;2022-09-21T00:13:55;7.50;;;4.17;;
15295;SDS011;7749;49.964;7.890;2022-09-21T00:16:26;7.40;;;3.83;;
15295;SDS011;7749;49.964;7.890;2022-09-21T00:18:54;6.73;;;4.03;;
15295;SDS011;7749;49.964;7.890;2022-09-21T00:21:22;6.23;;;3.93;;
15295;SDS011;7749;49.964;7.890;2022-09-21T00:23:50;6.80;;;4.50;;
15295;SDS011;7749;49.964;7.890;2022-09-21T00:26:19;5.87;;;4.03;;
15295;SDS011;7749;49.964;7.890;2022-09-21T00:28:56;6.60;;;4.73;;
15295;SDS011;7749;49.964;7.890;2022-09-21T00:31:25;6.63;;;4.60;;
15295;SDS011;7749;49.964;7.890;2022-09-21T00:33:54;6.27;;;4.77;;
15295;SDS011;7749;49.964;7.890;2022-09-21T00:36:25;6.40;;;5.13;;
15295;SDS011;7749;49.964;7.890;2022-09-21T00:38:54;5.53;;;5.03;;
15295;SDS011;7749;49.964;7.890;2022-09-21T00:41:24;9.17;;;5.80;;
15295;SDS011;7749;49.964;7.890;2022-09-21T00:46:42;7.27;;;6.13;;
15295;SDS011;7749;49.964;7.890;2022-09-21T00:49:12;7.10;;;6.20;;
15295;SDS011;7749;49.964;7.890;2022-09-21T00:51:41;7.90;;;6.30;;
15295;SDS011;7749;49.964;7.890;2022-09-21T00:54:13;7.23;;;6.43;;
15295;SDS011;7749;49.964;7.890;2022-09-21T00:56:55;8.23;;;7.00;;
15295;SDS011;7749;49.964;7.890;2022-09-21T00:59:30;8.47;;;6.77;;
15295;SDS011;7749;49.964;7.890;2022-09-21T01:02:00;11.47;;;7.47;;
15295;SDS011;7749;49.964;7.890;2022-09-21T01:04:28;10.00;;;7.57;;
15295;SDS011;7749;49.964;7.890;2022-09-21T01:06:56;8.50;;;7.70;;
15295;SDS011;7749;49.964;7.890;2022-09-21T01:09:26;8.83;;;7.97;;
15295;SDS011;7749;49.964;7.890;2022-09-21T01:12:02;9.30;;;8.20;;
15295;SDS011;7749;49.964;7.890;2022-09-21T01:17:26;8.33;;;7.63;;
15295;SDS011;7749;49.964;7.890;2022-09-21T01:20:07;8.70;;;7.60;;
15295;SDS011;7749;49.964;7.890;2022-09-21T01:25:33;8.37;;;7.50;;
15295;SDS011;7749;49.964;7.890;2022-09-21T01:28:24;7.73;;;6.83;;
15295;SDS011;7749;49.964;7.890;2022-09-21T01:31:15;8.00;;;7.20;;
15295;SDS011;7749;49.964;7.890;2022-09-21T01:33:50;8.53;;;6.90;;
15295;SDS011;7749;49.964;7.890;2022-09-21T01:36:24;8.20;;;7.40;;
15295;SDS011;7749;49.964;7.890;2022-09-21T01:38:57;8.00;;;7.30;;
15295;SDS011;7749;49.964;7.890;2022-09-21T01:41:30;7.87;;;7.03;;
15295;SDS011;7749;49.964;7.890;2022-09-21T01:44:06;7.60;;;7.00;;
15295;SDS011;7749;49.964;7.890;2022-09-21T01:46:38;8.27;;;7.47;;
15295;SDS011;7749;49.964;7.890;2022-09-21T01:49:10;8.50;;;6.70;;
15295;SDS011;7749;49.964;7.890;2022-09-21T01:51:42;8.23;;;7.40;;
15295;SDS011;7749;49.964;7.890;2022-09-21T01:54:17;8.87;;;7.60;;
15295;SDS011;7749;49.964;7.890;2022-09-21T01:56:56;8.23;;;7.37;;
15295;SDS011;7749;49.964;7.890;2022-09-21T01:59:33;9.67;;;7.97;;
15295;SDS011;7749;49.964;7.890;2022-09-21T02:02:13;9.33;;;8.33;;
15295;SDS011;7749;49.964;7.890;2022-09-21T02:04:48;9.10;;;8.10;;
15295;SDS011;7749;49.964;7.890;2022-09-21T02:07:16;8.07;;;7.37;;
15295;SDS011;7749;49.964;7.890;2022-09-21T02:09:44;9.33;;;8.43;;
15295;SDS011;7749;49.964;7.890;2022-09-21T02:12:14;9.67;;;8.67;;
15295;SDS011;7749;49.964;7.890;2022-09-21T02:14:45;9.33;;;8.33;;
15295;SDS011;7749;49.964;7.890;2022-09-21T02:19:45;11.90;;;9.07;;
15295;SDS011;7749;49.964;7.890;2022-09-21T02:22:43;9.50;;;8.60;;
15295;SDS011;7749;49.964;7.890;2022-09-21T02:25:34;10.40;;;8.17;;
15295;SDS011;7749;49.964;7.890;2022-09-21T02:31:00;10.13;;;8.63;;
15295;SDS011;7749;49.964;7.890;2022-09-21T02:36:27;9.67;;;8.77;;
15295;SDS011;7749;49.964;7.890;2022-09-21T02:39:06;10.47;;;9.40;;
15295;SDS011;7749;49.964;7.890;2022-09-21T02:42:30;10.80;;;9.57;;
15295;SDS011;7749;49.964;7.890;2022-09-21T02:47:17;12.87;;;9.77;;
15295;SDS011;7749;49.964;7.890;2022-09-21T02:49:51;10.17;;;9.17;;
15295;SDS011;7749;49.964;7.890;2022-09-21T02:52:24;12.10;;;10.80;;
15295;SDS011;7749;49.964;7.890;2022-09-21T02:54:54;12.67;;;10.03;;
15295;SDS011;7749;49.964;7.890;2022-09-21T02:57:22;12.13;;;10.20;;
15295;SDS011;7749;49.964;7.890;2022-09-21T02:59:51;10.93;;;9.80;;
15295;SDS011;7749;49.964;7.890;2022-09-21T03:02:19;11.47;;;10.37;;
15295;SDS011;7749;49.964;7.890;2022-09-21T03:04:47;9.67;;;8.47;;
15295;SDS011;7749;49.964;7.890;2022-09-21T03:07:15;9.70;;;8.90;;
15295;SDS011;7749;49.964;7.890;2022-09-21T03:09:43;9.83;;;8.93;;
15295;SDS011;7749;49.964;7.890;2022-09-21T03:12:11;10.13;;;9.13;;
15295;SDS011;7749;49.964;7.890;2022-09-21T03:14:39;9.63;;;8.67;;
15295;SDS011;7749;49.964;7.890;2022-09-21T03:17:07;9.40;;;8.60;;
15295;SDS011;7749;49.964;7.890;2022-09-21T03:19:35;10.53;;;9.20;;
15295;SDS011;7749;49.964;7.890;2022-09-21T03:22:03;10.33;;;9.33;;
15295;SDS011;7749;49.964;7.890;2022-09-21T03:24:30;10.20;;;8.93;;
15295;SDS011;7749;49.964;7.890;2022-09-21T03:27:14;9.97;;;9.07;;
15295;SDS011;7749;49.964;7.890;2022-09-21T03:29:44;9.67;;;8.80;;
15295;SDS011;7749;49.964;7.890;2022-09-21T03:32:12;9.90;;;9.10;;
15295;SDS011;7749;49.964;7.890;2022-09-21T03:34:40;11.13;;;9.37;;
15295;SDS011;7749;49.964;7.890;2022-09-21T03:37:08;12.90;;;9.63;;
15295;SDS011;7749;49.964;7.890;2022-09-21T03:39:36;12.37;;;9.47;;
15295;SDS011;7749;49.964;7.890;2022-09-21T03:42:04;9.87;;;8.87;;
15295;SDS011;7749;49.964;7.890;2022-09-21T03:44:32;9.67;;;8.77;;
15295;SDS011;7749;49.964;7.890;2022-09-21T03:47:00;10.17;;;9.17;;
15295;SDS011;7749;49.964;7.890;2022-09-21T03:49:27;10.13;;;9.00;;
15295;SDS011;7749;49.964;7.890;2022-09-21T03:51:55;11.60;;;9.17;;
15295;SDS011;7749;49.964;7.890;2022-09-21T03:54:23;10.37;;;9.10;;
15295;SDS011;7749;49.964;7.890;2022-09-21T03:56:51;11.83;;;10.57;;
15295;SDS011;7749;49.964;7.890;2022-09-21T03:59:19;10.80;;;9.80;;
15295;SDS011;7749;49.964;7.890;2022-09-21T04:01:46;9.97;;;9.03;;
15295;SDS011;7749;49.964;7.890;2022-09-21T04:04:14;14.93;;;9.40;;
15295;SDS011;7749;49.964;7.890;2022-09-21T04:06:42;15.03;;;10.53;;
15295;SDS011;7749;49.964;7.890;2022-09-21T04:09:12;13.43;;;10.97;;
15295;SDS011;7749;49.964;7.890;2022-09-21T04:11:39;15.17;;;10.67;;
15295;SDS011;7749;49.964;7.890;2022-09-21T04:14:07;18.67;;;10.90;;
15295;SDS011;7749;49.964;7.890;2022-09-21T04:16:38;12.00;;;10.80;;
15295;SDS011;7749;49.964;7.890;2022-09-21T04:19:05;13.53;;;10.87;;
15295;SDS011;7749;49.964;7.890;2022-09-21T04:21:33;12.87;;;10.63;;
15295;SDS011;7749;49.964;7.890;2022-09-21T04:24:01;13.37;;;11.50;;
15295;SDS011;7749;49.964;7.890;2022-09-21T04:26:30;12.50;;;11.00;;
15295;SDS011;7749;49.964;7.890;2022-09-21T04:28:59;12.17;;;10.83;;
15295;SDS011;7749;49.964;7.890;2022-09-21T04:31:28;12.13;;;10.83;;
15295;SDS011;7749;49.964;7.890;2022-09-21T04:33:56;15.03;;;11.23;;
15295;SDS011;7749;49.964;7.890;2022-09-21T04:36:24;13.77;;;10.97;;
15295;SDS011;7749;49.964;7.890;2022-09-21T04:38:54;11.67;;;10.30;;
15295;SDS011;7749;49.964;7.890;2022-09-21T04:41:21;12.00;;;10.80;;
15295;SDS011;7749;49.964;7.890;2022-09-21T04:43:49;16.00;;;9.70;;
15295;SDS011;7749;49.964;7.890;2022-09-21T04:46:17;12.03;;;9.83;;
15295;SDS011;7749;49.964;7.890;2022-09-21T04:48:47;11.10;;;9.57;;
15295;SDS011;7749;49.964;7.890;2022-09-21T04:51:15;13.90;;;9.73;;
15295;SDS011;7749;49.964;7.890;2022-09-21T04:53:43;10.90;;;9.80;;
15295;SDS011;7749;49.964;7.890;2022-09-21T04:56:13;11.57;;;10.37;;
15295;SDS011;7749;49.964;7.890;2022-09-21T04:58:41;10.77;;;9.70;;
15295;SDS011;7749;49.964;7.890;2022-09-21T05:01:09;15.73;;;10.43;;
15295;SDS011;7749;49.964;7.890;2022-09-21T05:03:38;14.57;;;10.07;;
15295;SDS011;7749;49.964;7.890;2022-09-21T05:06:05;12.63;;;10.80;;
15295;SDS011;7749;49.964;7.890;2022-09-21T05:08:33;12.93;;;11.20;;
15295;SDS011;7749;49.964;7.890;2022-09-21T05:11:20;12.07;;;10.77;;
15295;SDS011;7749;49.964;7.890;2022-09-21T05:13:49;12.80;;;10.27;;
15295;SDS011;7749;49.964;7.890;2022-09-21T05:16:17;11.60;;;10.10;;
15295;SDS011;7749;49.964;7.890;2022-09-21T05:18:45;12.97;;;10.17;;
15295;SDS011;7749;49.964;7.890;2022-09-21T05:21:13;11.90;;;9.90;;
15295;SDS011;7749;49.964;7.890;2022-09-21T05:23:41;14.87;;;10.00;;
15295;SDS011;7749;49.964;7.890;2022-09-21T05:26:09;13.33;;;9.60;;
15295;SDS011;7749;49.964;7.890;2022-09-21T05:28:37;11.10;;;9.93;;
15295;SDS011;7749;49.964;7.890;2022-09-21T05:31:21;12.17;;;10.13;;
15295;SDS011;7749;49.964;7.890;2022-09-21T05:37:01;10.50;;;9.40;;
15295;SDS011;7749;49.964;7.890;2022-09-21T05:39:57;10.60;;;9.50;;
15295;SDS011;7749;49.964;7.890;2022-09-21T05:42:25;11.40;;;9.80;;
15295;SDS011;7749;49.964;7.890;2022-09-21T05:44:53;15.73;;;9.10;;
15295;SDS011;7749;49.964;7.890;2022-09-21T05:47:36;11.07;;;9.47;;
15295;SDS011;7749;49.964;7.890;2022-09-21T05:53:00;10.70;;;8.33;;
15295;SDS011;7749;49.964;7.890;2022-09-21T06:04:34;9.50;;;8.50;;
15295;SDS011;7749;49.964;7.890;2022-09-21T06:07:02;9.80;;;8.40;;
15295;SDS011;7749;49.964;7.890;2022-09-21T06:09:29;8.97;;;8.07;;
15295;SDS011;7749;49.964;7.890;2022-09-21T06:11:57;10.37;;;7.83;;
15295;SDS011;7749;49.964;7.890;2022-09-21T06:14:25;12.63;;;8.17;;
15295;SDS011;7749;49.964;7.890;2022-09-21T06:16:53;9.27;;;8.17;;
15295;SDS011;7749;49.964;7.890;2022-09-21T06:19:20;10.97;;;7.87;;
15295;SDS011;7749;49.964;7.890;2022-09-21T06:21:48;10.17;;;8.03;;
15295;SDS011;7749;49.964;7.890;2022-09-21T06:24:16;8.23;;;7.30;;
15295;SDS011;7749;49.964;7.890;2022-09-21T06:26:43;11.37;;;7.53;;
15295;SDS011;7749;49.964;7.890;2022-09-21T06:29:11;10.73;;;7.40;;
15295;SDS011;7749;49.964;7.890;2022-09-21T06:31:39;11.67;;;7.07;;
15295;SDS011;7749;49.964;7.890;2022-09-21T06:34:06;11.33;;;7.87;;
15295;SDS011;7749;49.964;7.890;2022-09-21T06:36:42;8.07;;;6.60;;
15295;SDS011;7749;49.964;7.890;2022-09-21T06:39:11;8.37;;;7.23;;
15295;SDS011;7749;49.964;7.890;2022-09-21T06:41:39;8.93;;;7.63;;
15295;SDS011;7749;49.964;7.890;2022-09-21T06:44:07;9.87;;;8.20;;
15295;SDS011;7749;49.964;7.890;2022-09-21T06:46:34;11.27;;;9.53;;
15295;SDS011;7749;49.964;7.890;2022-09-21T06:49:02;10.33;;;8.47;;
15295;SDS011;7749;49.964;7.890;2022-09-21T06:51:30;12.10;;;8.90;;
15295;SDS011;7749;49.964;7.890;2022-09-21T06:53:57;9.70;;;8.67;;
15295;SDS011;7749;49.964;7.890;2022-09-21T06:56:25;8.77;;;7.63;;
15295;SDS011;7749;49.964;7.890;2022-09-21T06:58:53;11.83;;;9.77;;
15295;SDS011;7749;49.964;7.890;2022-09-21T07:01:21;17.23;;;14.20;;
15295;SDS011;7749;49.964;7.890;2022-09-21T07:03:49;26.33;;;23.37;;
15295;SDS011;7749;49.964;7.890;2022-09-21T07:06:18;12.50;;;10.53;;
15295;SDS011;7749;49.964;7.890;2022-09-21T07:08:46;10.77;;;9.30;;
15295;SDS011;7749;49.964;7.890;2022-09-21T07:11:34;11.30;;;10.17;;
15295;SDS011;7749;49.964;7.890;2022-09-21T07:14:02;10.93;;;8.23;;
15295;SDS011;7749;49.964;7.890;2022-09-21T07:16:30;12.97;;;11.53;;
15295;SDS011;7749;49.964;7.890;2022-09-21T07:18:58;9.53;;;8.60;;
15295;SDS011;7749;49.964;7.890;2022-09-21T07:21:36;12.50;;;9.77;;
15295;SDS011;7749;49.964;7.890;2022-09-21T07:24:04;11.77;;;10.57;;
15295;SDS011;7749;49.964;7.890;2022-09-21T07:26:37;9.90;;;8.27;;
15295;SDS011;7749;49.964;7.890;2022-09-21T07:29:05;10.87;;;8.17;;
15295;SDS011;7749;49.964;7.890;2022-09-21T07:31:33;8.00;;;7.17;;
15295;SDS011;7749;49.964;7.890;2022-09-21T07:34:01;8.57;;;7.67;;
15295;SDS011;7749;49.964;7.890;2022-09-21T07:36:30;8.83;;;7.43;;
15295;SDS011;7749;49.964;7.890;2022-09-21T07:38:58;9.57;;;7.80;;
15295;SDS011;7749;49.964;7.890;2022-09-21T07:41:26;8.40;;;7.50;;
15295;SDS011;7749;49.964;7.890;2022-09-21T07:43:53;9.03;;;7.20;;
15295;SDS011;7749;49.964;7.890;2022-09-21T07:46:21;8.40;;;7.60;;
15295;SDS011;7749;49.964;7.890;2022-09-21T07:48:54;8.70;;;7.53;;
15295;SDS011;7749;49.964;7.890;2022-09-21T07:51:22;8.87;;;7.20;;
15295;SDS011;7749;49.964;7.890;2022-09-21T07:53:54;8.00;;;7.20;;
15295;SDS011;7749;49.964;7.890;2022-09-21T07:56:23;9.10;;;7.90;;
15295;SDS011;7749;49.964;7.890;2022-09-21T07:58:51;9.10;;;7.27;;
15295;SDS011;7749;49.964;7.890;2022-09-21T08:01:35;7.40;;;6.70;;
15295;SDS011;7749;49.964;7.890;2022-09-21T08:04:03;7.90;;;6.90;;
15295;SDS011;7749;49.964;7.890;2022-09-21T08:06:33;9.07;;;6.90;;
15295;SDS011;7749;49.964;7.890;2022-09-21T08:09:02;8.37;;;7.07;;
15295;SDS011;7749;49.964;7.890;2022-09-21T08:11:30;9.27;;;7.27;;
15295;SDS011;7749;49.964;7.890;2022-09-21T08:14:00;8.00;;;7.20;;
15295;SDS011;7749;49.964;7.890;2022-09-21T08:16:29;8.20;;;6.87;;
15295;SDS011;7749;49.964;7.890;2022-09-21T08:18:58;16.13;;;7.57;;
15295;SDS011;7749;49.964;7.890;2022-09-21T08:21:26;7.63;;;6.13;;
15295;SDS011;7749;49.964;7.890;2022-09-21T08:23:54;6.87;;;6.17;;
15295;SDS011;7749;49.964;7.890;2022-09-21T08:26:22;7.63;;;5.87;;
15295;SDS011;7749;49.964;7.890;2022-09-21T08:28:51;7.00;;;6.30;;
15295;SDS011;7749;49.964;7.890;2022-09-21T08:31:20;7.17;;;5.77;;
15295;SDS011;7749;49.964;7.890;2022-09-21T08:33:49;5.70;;;5.07;;
15295;SDS011;7749;49.964;7.890;2022-09-21T08:36:18;6.60;;;5.53;;
15295;SDS011;7749;49.964;7.890;2022-09-21T08:38:46;6.77;;;5.60;;
15295;SDS011;7749;49.964;7.890;2022-09-21T08:41:16;10.07;;;6.97;;
15295;SDS011;7749;49.964;7.890;2022-09-21T08:43:54;10.00;;;5.83;;
15295;SDS011;7749;49.964;7.890;2022-09-21T08:46:31;7.30;;;5.53;;
15295;SDS011;7749;49.964;7.890;2022-09-21T08:49:10;5.20;;;4.70;;
15295;SDS011;7749;49.964;7.890;2022-09-21T08:51:47;6.37;;;4.87;;
15295;SDS011;7749;49.964;7.890;2022-09-21T08:57:13;5.80;;;4.80;;
15295;SDS011;7749;49.964;7.890;2022-09-21T08:59:45;5.20;;;4.70;;
15295;SDS011;7749;49.964;7.890;2022-09-21T09:10:43;6.07;;;4.77;;
15295;SDS011;7749;49.964;7.890;2022-09-21T09:21:52;5.07;;;3.73;;
15295;SDS011;7749;49.964;7.890;2022-09-21T09:25:06;4.03;;;3.63;;
15295;SDS011;7749;49.964;7.890;2022-09-21T09:27:19;6.63;;;4.40;;
15295;SDS011;7749;49.964;7.890;2022-09-21T09:35:32;8.07;;;4.17;;
15295;SDS011;7749;49.964;7.890;2022-09-21T09:38:29;4.57;;;4.17;;
15295;SDS011;7749;49.964;7.890;2022-09-21T09:41:31;5.50;;;3.97;;
15295;SDS011;7749;49.964;7.890;2022-09-21T09:52:52;6.27;;;3.90;;
15295;SDS011;7749;49.964;7.890;2022-09-21T10:01:08;7.47;;;3.57;;
15295;SDS011;7749;49.964;7.890;2022-09-21T10:04:06;5.57;;;2.83;;
15295;SDS011;7749;49.964;7.890;2022-09-21T10:06:37;6.00;;;2.63;;
15295;SDS011;7749;49.964;7.890;2022-09-21T10:09:28;4.13;;;2.80;;
15295;SDS011;7749;49.964;7.890;2022-09-21T10:12:01;5.80;;;2.67;;
15295;SDS011;7749;49.964;7.890;2022-09-21T10:14:46;6.17;;;2.50;;
15295;SDS011;7749;49.964;7.890;2022-09-21T10:17:16;5.53;;;2.53;;
15295;SDS011;7749;49.964;7.890;2022-09-21T10:19:45;4.90;;;2.43;;
15295;SDS011;7749;49.964;7.890;2022-09-21T10:22:17;6.53;;;2.43;;
15295;SDS011;7749;49.964;7.890;2022-09-21T10:24:48;5.23;;;2.87;;
15295;SDS011;7749;49.964;7.890;2022-09-21T10:27:26;4.07;;;2.50;;
15295;SDS011;7749;49.964;7.890;2022-09-21T10:29:56;8.20;;;2.53;;
15295;SDS011;7749;49.964;7.890;2022-09-21T10:32:25;4.13;;;1.90;;
15295;SDS011;7749;49.964;7.890;2022-09-21T10:37:36;3.43;;;1.60;;
15295;SDS011;7749;49.964;7.890;2022-09-21T10:40:42;2.43;;;1.60;;
15295;SDS011;7749;49.964;7.890;2022-09-21T10:43:03;4.73;;;1.60;;
15295;SDS011;7749;49.964;7.890;2022-09-21T10:45:31;3.80;;;1.80;;
15295;SDS011;7749;49.964;7.890;2022-09-21T10:55:39;4.47;;;1.13;;
15295;SDS011;7749;49.964;7.890;2022-09-21T10:58:35;4.32;;;1.33;;
15295;SDS011;7749;49.964;7.890;2022-09-21T11:01:10;2.92;;;1.10;;
15295;SDS011;7749;49.964;7.890;2022-09-21T11:06:30;2.58;;;1.25;;
15295;SDS011;7749;49.964;7.890;2022-09-21T11:09:05;4.45;;;1.85;;
15295;SDS011;7749;49.964;7.890;2022-09-21T11:11:41;7.70;;;3.90;;
15295;SDS011;7749;49.964;7.890;2022-09-21T11:14:50;2.78;;;1.55;;
15295;SDS011;7749;49.964;7.890;2022-09-21T11:17:51;3.92;;;1.80;;
15295;SDS011;7749;49.964;7.890;2022-09-21T11:23:15;4.38;;;1.90;;
15295;SDS011;7749;49.964;7.890;2022-09-21T11:25:59;3.38;;;2.00;;
15295;SDS011;7749;49.964;7.890;2022-09-21T11:28:35;2.75;;;1.60;;
15295;SDS011;7749;49.964;7.890;2022-09-21T11:36:50;4.85;;;1.85;;
15295;SDS011;7749;49.964;7.890;2022-09-21T11:44:59;3.50;;;1.65;;
15295;SDS011;7749;49.964;7.890;2022-09-21T11:58:47;4.18;;;1.63;;
15295;SDS011;7749;49.964;7.890;2022-09-21T12:04:05;4.05;;;2.28;;
15295;SDS011;7749;49.964;7.890;2022-09-21T12:09:56;2.95;;;1.95;;
15295;SDS011;7749;49.964;7.890;2022-09-21T12:15:21;8.00;;;3.10;;
15295;SDS011;7749;49.964;7.890;2022-09-21T12:18:08;3.15;;;1.60;;
15295;SDS011;7749;49.964;7.890;2022-09-21T12:26:13;3.85;;;1.70;;
15295;SDS011;7749;49.964;7.890;2022-09-21T12:28:49;3.50;;;1.30;;
15295;SDS011;7749;49.964;7.890;2022-09-21T12:31:24;4.20;;;2.10;;
15295;SDS011;7749;49.964;7.890;2022-09-21T12:33:57;2.30;;;1.20;;
15295;SDS011;7749;49.964;7.890;2022-09-21T12:36:38;5.85;;;1.42;;
15295;SDS011;7749;49.964;7.890;2022-09-21T12:42:15;1.90;;;1.10;;
15295;SDS011;7749;49.964;7.890;2022-09-21T12:44:59;2.55;;;1.30;;
15295;SDS011;7749;49.964;7.890;2022-09-21T12:53:00;3.53;;;1.65;;
15295;SDS011;7749;49.964;7.890;2022-09-21T12:55:32;2.53;;;1.13;;
15295;SDS011;7749;49.964;7.890;2022-09-21T13:04:15;2.47;;;1.13;;
15295;SDS011;7749;49.964;7.890;2022-09-21T13:10:13;1.38;;;1.00;;
15295;SDS011;7749;49.964;7.890;2022-09-21T13:12:55;2.17;;;1.25;;
15295;SDS011;7749;49.964;7.890;2022-09-21T13:15:31;4.45;;;1.40;;
15295;SDS011;7749;49.964;7.890;2022-09-21T13:18:35;2.50;;;1.15;;
15295;SDS011;7749;49.964;7.890;2022-09-21T13:23:43;2.55;;;1.02;;
15295;SDS011;7749;49.964;7.890;2022-09-21T13:26:28;2.75;;;1.05;;
15295;SDS011;7749;49.964;7.890;2022-09-21T13:32:20;2.80;;;1.02;;
15295;SDS011;7749;49.964;7.890;2022-09-21T13:34:40;3.47;;;1.20;;
15295;SDS011;7749;49.964;7.890;2022-09-21T13:37:13;1.73;;;1.20;;
15295;SDS011;7749;49.964;7.890;2022-09-21T13:47:40;1.75;;;1.25;;
15295;SDS011;7749;49.964;7.890;2022-09-21T13:50:18;1.55;;;1.23;;
15295;SDS011;7749;49.964;7.890;2022-09-21T13:53:36;2.70;;;1.20;;
15295;SDS011;7749;49.964;7.890;2022-09-21T13:55:49;2.45;;;1.20;;
15295;SDS011;7749;49.964;7.890;2022-09-21T13:58:23;2.90;;;0.90;;
15295;SDS011;7749;49.964;7.890;2022-09-21T14:03:26;2.50;;;1.38;;
15295;SDS011;7749;49.964;7.890;2022-09-21T14:06:02;1.85;;;0.90;;
15295;SDS011;7749;49.964;7.890;2022-09-21T14:08:32;3.58;;;0.98;;
15295;SDS011;7749;49.964;7.890;2022-09-21T14:11:08;2.03;;;0.98;;
15295;SDS011;7749;49.964;7.890;2022-09-21T14:13:45;1.98;;;1.00;;
15295;SDS011;7749;49.964;7.890;2022-09-21T14:30:19;2.13;;;0.90;;
15295;SDS011;7749;49.964;7.890;2022-09-21T14:35:30;2.13;;;1.30;;
15295;SDS011;7749;49.964;7.890;2022-09-21T14:38:13;1.27;;;0.80;;
15295;SDS011;7749;49.964;7.890;2022-09-21T14:40:49;2.33;;;1.20;;
15295;SDS011;7749;49.964;7.890;2022-09-21T14:43:31;2.42;;;1.70;;
15295;SDS011;7749;49.964;7.890;2022-09-21T14:46:11;1.10;;;0.75;;
15295;SDS011;7749;49.964;7.890;2022-09-21T15:00:44;1.60;;;1.50;;
15295;SDS011;7749;49.964;7.890;2022-09-21T15:06:18;1.13;;;0.80;;
15295;SDS011;7749;49.964;7.890;2022-09-21T15:09:24;1.45;;;0.63;;
15295;SDS011;7749;49.964;7.890;2022-09-21T15:12:36;1.10;;;0.70;;
15295;SDS011;7749;49.964;7.890;2022-09-21T15:15:25;3.72;;;0.80;;
15295;SDS011;7749;49.964;7.890;2022-09-21T15:17:56;1.85;;;0.80;;
15295;SDS011;7749;49.964;7.890;2022-09-21T15:20:29;1.45;;;0.68;;
15295;SDS011;7749;49.964;7.890;2022-09-21T15:22:58;4.70;;;4.30;;
15295;SDS011;7749;49.964;7.890;2022-09-21T15:25:28;2.85;;;1.60;;
15295;SDS011;7749;49.964;7.890;2022-09-21T15:27:59;2.17;;;1.20;;
15295;SDS011;7749;49.964;7.890;2022-09-21T15:30:28;1.20;;;0.85;;
15295;SDS011;7749;49.964;7.890;2022-09-21T15:32:59;2.65;;;1.00;;
15295;SDS011;7749;49.964;7.890;2022-09-21T15:35:30;2.60;;;0.82;;
15295;SDS011;7749;49.964;7.890;2022-09-21T15:37:59;2.38;;;0.80;;
15295;SDS011;7749;49.964;7.890;2022-09-21T15:40:29;1.50;;;1.08;;
15295;SDS011;7749;49.964;7.890;2022-09-21T15:45:53;1.27;;;1.00;;
15295;SDS011;7749;49.964;7.890;2022-09-21T15:48:28;1.17;;;1.08;;
15295;SDS011;7749;49.964;7.890;2022-09-21T15:51:03;2.05;;;1.10;;
15295;SDS011;7749;49.964;7.890;2022-09-21T15:53:34;1.92;;;1.20;;
15295;SDS011;7749;49.964;7.890;2022-09-21T15:56:15;2.40;;;1.23;;
15295;SDS011;7749;49.964;7.890;2022-09-21T15:58:49;1.25;;;0.90;;
15295;SDS011;7749;49.964;7.890;2022-09-21T16:01:20;1.20;;;1.00;;
15295;SDS011;7749;49.964;7.890;2022-09-21T16:04:11;1.63;;;0.90;;
15295;SDS011;7749;49.964;7.890;2022-09-21T16:06:40;1.65;;;1.27;;
15295;SDS011;7749;49.964;7.890;2022-09-21T16:11:56;1.70;;;1.00;;
15295;SDS011;7749;49.964;7.890;2022-09-21T16:14:24;1.25;;;1.10;;
15295;SDS011;7749;49.964;7.890;2022-09-21T16:19:42;2.30;;;1.20;;
15295;SDS011;7749;49.964;7.890;2022-09-21T16:22:36;1.67;;;0.82;;
15295;SDS011;7749;49.964;7.890;2022-09-21T16:27:56;3.20;;;0.70;;
15295;SDS011;7749;49.964;7.890;2022-09-21T16:30:38;1.20;;;0.80;;
15295;SDS011;7749;49.964;7.890;2022-09-21T16:38:43;1.02;;;0.77;;
15295;SDS011;7749;49.964;7.890;2022-09-21T16:41:13;1.52;;;1.20;;
15295;SDS011;7749;49.964;7.890;2022-09-21T16:43:45;1.52;;;0.80;;
15295;SDS011;7749;49.964;7.890;2022-09-21T16:46:13;1.75;;;1.60;;
15295;SDS011;7749;49.964;7.890;2022-09-21T16:48:40;1.90;;;1.05;;
15295;SDS011;7749;49.964;7.890;2022-09-21T16:51:11;1.50;;;0.98;;
15295;SDS011;7749;49.964;7.890;2022-09-21T16:53:40;6.10;;;1.40;;
15295;SDS011;7749;49.964;7.890;2022-09-21T16:56:09;3.35;;;1.40;;
15295;SDS011;7749;49.964;7.890;2022-09-21T16:58:40;7.95;;;1.10;;
15295;SDS011;7749;49.964;7.890;2022-09-21T17:01:12;2.50;;;0.83;;
15295;SDS011;7749;49.964;7.890;2022-09-21T17:03:41;1.60;;;0.80;;
15295;SDS011;7749;49.964;7.890;2022-09-21T17:06:19;1.90;;;0.93;;
15295;SDS011;7749;49.964;7.890;2022-09-21T17:08:47;2.57;;;1.10;;
15295;SDS011;7749;49.964;7.890;2022-09-21T17:11:16;1.00;;;0.90;;
15295;SDS011;7749;49.964;7.890;2022-09-21T17:13:48;3.00;;;1.00;;
15295;SDS011;7749;49.964;7.890;2022-09-21T17:16:16;2.27;;;1.00;;
15295;SDS011;7749;49.964;7.890;2022-09-21T17:18:46;3.23;;;1.07;;
15295;SDS011;7749;49.964;7.890;2022-09-21T17:21:15;4.13;;;1.27;;
15295;SDS011;7749;49.964;7.890;2022-09-21T17:23:42;3.23;;;1.13;;
15295;SDS011;7749;49.964;7.890;2022-09-21T17:26:15;2.97;;;1.20;;
15295;SDS011;7749;49.964;7.890;2022-09-21T17:28:45;7.23;;;1.60;;
15295;SDS011;7749;49.964;7.890;2022-09-21T17:31:14;2.37;;;0.90;;
15295;SDS011;7749;49.964;7.890;2022-09-21T17:33:42;1.73;;;0.93;;
15295;SDS011;7749;49.964;7.890;2022-09-21T17:36:12;3.17;;;1.60;;
15295;SDS011;7749;49.964;7.890;2022-09-21T17:38:41;3.57;;;1.90;;
15295;SDS011;7749;49.964;7.890;2022-09-21T17:41:24;2.90;;;1.50;;
15295;SDS011;7749;49.964;7.890;2022-09-21T17:44:01;2.57;;;1.57;;
15295;SDS011;7749;49.964;7.890;2022-09-21T17:49:20;4.97;;;2.20;;
15295;SDS011;7749;49.964;7.890;2022-09-21T17:51:47;5.03;;;2.30;;
15295;SDS011;7749;49.964;7.890;2022-09-21T17:54:35;4.00;;;1.70;;
15295;SDS011;7749;49.964;7.890;2022-09-21T17:57:13;2.40;;;1.10;;
15295;SDS011;7749;49.964;7.890;2022-09-21T17:59:56;2.50;;;1.50;;
15295;SDS011;7749;49.964;7.890;2022-09-21T18:02:29;3.47;;;1.97;;
15295;SDS011;7749;49.964;7.890;2022-09-21T18:04:58;4.10;;;1.60;;
15295;SDS011;7749;49.964;7.890;2022-09-21T18:07:30;5.63;;;1.90;;
15295;SDS011;7749;49.964;7.890;2022-09-21T18:09:58;2.63;;;1.80;;
15295;SDS011;7749;49.964;7.890;2022-09-21T18:12:39;2.57;;;1.73;;
15295;SDS011;7749;49.964;7.890;2022-09-21T18:15:18;2.60;;;1.60;;
15295;SDS011;7749;49.964;7.890;2022-09-21T18:18:02;2.20;;;1.50;;
15295;SDS011;7749;49.964;7.890;2022-09-21T18:21:04;3.40;;;1.93;;
15295;SDS011;7749;49.964;7.890;2022-09-21T18:26:16;1.70;;;1.60;;
15295;SDS011;7749;49.964;7.890;2022-09-21T18:28:45;8.80;;;1.60;;
15295;SDS011;7749;49.964;7.890;2022-09-21T18:39:48;5.03;;;1.60;;
15295;SDS011;7749;49.964;7.890;2022-09-21T18:45:05;1.83;;;1.40;;
15295;SDS011;7749;49.964;7.890;2022-09-21T18:50:30;3.83;;;1.90;;
15295;SDS011;7749;49.964;7.890;2022-09-21T18:55:41;4.33;;;2.10;;
15295;SDS011;7749;49.964;7.890;2022-09-21T18:58:09;3.20;;;1.80;;
15295;SDS011;7749;49.964;7.890;2022-09-21T19:00:38;3.80;;;1.90;;
15295;SDS011;7749;49.964;7.890;2022-09-21T19:03:06;5.37;;;1.90;;
15295;SDS011;7749;49.964;7.890;2022-09-21T19:05:52;2.40;;;2.00;;
15295;SDS011;7749;49.964;7.890;2022-09-21T19:11:08;2.57;;;1.80;;
15295;SDS011;7749;49.964;7.890;2022-09-21T19:16:47;2.97;;;1.43;;
15295;SDS011;7749;49.964;7.890;2022-09-21T19:19:31;1.80;;;1.37;;
15295;SDS011;7749;49.964;7.890;2022-09-21T19:22:14;2.00;;;1.60;;
15295;SDS011;7749;49.964;7.890;2022-09-21T19:24:57;3.30;;;1.70;;
15295;SDS011;7749;49.964;7.890;2022-09-21T19:30:10;3.73;;;1.60;;
15295;SDS011;7749;49.964;7.890;2022-09-21T19:35:15;4.20;;;1.50;;
15295;SDS011;7749;49.964;7.890;2022-09-21T19:37:45;2.33;;;1.63;;